CheckWX is a tool to help pilots better visualize weather data.  It is not intended as a substitute for an official pre-flight weather briefing.

05:46:33 UTC

KCXE METAR
Chase City Municipal Airport
Chase City, Virginia, USA
Current

32 mins ago

KCXE 240515Z AUTO 00000KT 2 1/2SM OVC003 04/04 A3005 RMK AO1 T00370037
Observed
Feb-24 @ 05:15 UTC
Visibility
2 1/2 SM
Flight Rules
LIFR
Cloud Levels
  • Overcast at 300' AGL
Temperature
C / 39°F
Dewpoint
C / 39°F
Humidity
100%
Altimeter
30.05" Hg
Pressure
1017.62 hPa
Previous

52 mins ago

KCXE 240455Z AUTO 00000KT 2 1/2SM OVC003 04/04 A3007 RMK AO1 T00380038
Observed
Feb-24 @ 04:55 UTC
Visibility
2 1/2 SM
Flight Rules
LIFR
Cloud Levels
  • Overcast at 300' AGL
Temperature
C / 39°F
Dewpoint
C / 39°F
Humidity
100%
Altimeter
30.07" Hg
Pressure
1018.32 hPa
Previous

1 hour ago

KCXE 240435Z AUTO 00000KT 3SM OVC003 04/04 A3007 RMK AO1 T00380038
Observed
Feb-24 @ 04:35 UTC
Visibility
3 SM
Flight Rules
LIFR
Cloud Levels
  • Overcast at 300' AGL
Temperature
C / 39°F
Dewpoint
C / 39°F
Humidity
100%
Altimeter
30.07" Hg
Pressure
1018.32 hPa